createdAt,value
2022-09-17T00:06:38.945Z,100129.69
2022-09-17T00:13:27.628Z,100123.47
2022-09-17T00:20:13.894Z,100113.50
2022-09-17T00:26:59.855Z,100132.97
2022-09-17T00:33:48.053Z,100124.91
2022-09-17T00:40:33.584Z,100131.41
2022-09-17T00:47:26.356Z,100132.22
2022-09-17T00:54:15.254Z,100128.34
2022-09-17T01:01:00.638Z,100137.81
2022-09-17T01:08:05.657Z,100131.16
2022-09-17T01:15:15.945Z,100137.28
2022-09-17T01:22:08.504Z,100140.00
2022-09-17T01:29:04.676Z,100143.25
2022-09-17T01:36:03.767Z,100160.84
2022-09-17T01:42:59.687Z,100163.88
2022-09-17T01:49:46.069Z,100171.06
2022-09-17T01:56:40.739Z,100114.94
2022-09-17T02:03:30.732Z,100177.19
2022-09-17T02:10:21.230Z,100131.34
2022-09-17T02:17:19.289Z,100167.59
2022-09-17T02:24:17.943Z,100151.50
2022-09-17T02:31:03.382Z,100157.50
2022-09-17T02:37:53.201Z,100167.38
2022-09-17T02:44:50.476Z,100163.41
2022-09-17T03:05:28.191Z,100159.28
2022-09-17T03:12:15.327Z,100086.19
2022-09-17T03:19:00.783Z,100155.72
2022-09-17T03:25:49.604Z,100156.66
2022-09-17T03:32:34.989Z,100090.84
2022-09-17T03:39:20.405Z,100169.19
2022-09-17T03:46:08.561Z,100168.28
2022-09-17T03:52:53.964Z,100179.16
2022-09-17T03:59:39.886Z,100186.06
2022-09-17T04:06:28.070Z,100184.19
2022-09-17T04:13:13.855Z,100195.53
2022-09-17T04:19:59.224Z,100186.69
2022-09-17T04:26:47.369Z,100174.66
2022-09-17T04:33:32.961Z,100190.22
2022-09-17T04:40:18.717Z,100154.06
2022-09-17T04:47:06.939Z,100181.28
2022-09-17T04:53:52.333Z,100205.81
2022-09-17T05:00:38.077Z,100211.91
2022-09-17T05:07:26.369Z,100209.16
2022-09-17T05:14:11.937Z,100114.72
2022-09-17T05:20:57.313Z,100124.59
2022-09-17T05:27:45.565Z,100194.53
2022-09-17T05:34:30.942Z,100231.44
2022-09-17T05:41:16.956Z,100238.69
2022-09-17T05:48:06.737Z,100238.22
2022-09-17T05:54:52.138Z,100228.75
2022-09-17T06:01:37.534Z,100253.53
2022-09-17T06:08:25.775Z,100242.22
2022-09-17T06:15:14.645Z,100241.97
2022-09-17T06:21:59.985Z,100256.03
2022-09-17T06:28:48.753Z,100255.25
2022-09-17T06:35:34.136Z,100264.59
2022-09-17T06:42:19.480Z,100269.28
2022-09-17T06:49:08.016Z,100266.78
2022-09-17T06:55:53.563Z,100264.88
2022-09-17T07:02:38.904Z,100270.22
2022-09-17T07:09:26.980Z,100258.84
2022-09-17T07:16:14.136Z,100260.69
2022-09-17T07:22:59.977Z,100281.88
2022-09-17T07:29:47.923Z,100282.13
2022-09-17T07:36:33.268Z,100283.06
2022-09-17T07:43:18.607Z,100269.81
2022-09-17T07:50:06.865Z,100209.63
2022-09-17T07:56:52.207Z,100277.16
2022-09-17T08:03:37.901Z,100279.91
2022-09-17T08:10:27.232Z,100276.88
2022-09-17T08:17:13.052Z,100280.59
2022-09-17T08:23:58.453Z,100287.50
2022-09-17T08:30:46.507Z,100279.91
2022-09-17T08:37:32.929Z,100288.44
2022-09-17T08:44:27.932Z,100192.44
2022-09-17T08:51:34.701Z,100205.22
2022-09-17T08:58:54.081Z,100283.56
2022-09-17T09:05:47.536Z,100295.47
2022-09-17T09:12:39.190Z,100274.13
2022-09-17T09:19:28.149Z,100271.31
2022-09-17T09:26:21.117Z,100262.53
2022-09-17T09:33:17.932Z,100265.56
2022-09-17T09:40:18.617Z,100263.59
2022-09-17T09:47:28.220Z,100274.78
2022-09-17T09:54:39.445Z,100275.78
2022-09-17T10:01:25.855Z,100258.44
2022-09-17T10:08:16.577Z,100268.50
2022-09-17T10:15:28.577Z,100303.09
2022-09-17T10:22:30.345Z,100327.78
2022-09-17T10:29:20.066Z,100313.72
2022-09-17T10:36:11.464Z,100305.72
2022-09-17T10:43:26.005Z,100296.75
2022-09-17T10:50:21.270Z,100295.84
2022-09-17T10:57:11.402Z,100294.25
2022-09-17T11:04:25.544Z,100296.28
2022-09-17T11:11:17.848Z,100294.53
2022-09-17T11:18:28.981Z,100289.00
2022-09-17T11:25:40.452Z,100285.50
2022-09-17T11:32:59.160Z,100280.03
2022-09-17T11:39:55.420Z,100274.75
2022-09-17T11:46:49.486Z,100204.75
2022-09-17T11:53:40.603Z,100245.47
2022-09-17T12:00:32.212Z,100236.59
2022-09-17T12:07:38.801Z,100235.16
2022-09-17T12:14:29.271Z,100178.72
2022-09-17T12:21:24.080Z,100140.38
2022-09-17T12:28:14.677Z,100222.78
2022-09-17T12:35:13.868Z,100214.44
2022-09-17T12:42:15.401Z,100208.00
2022-09-17T12:49:30.714Z,100199.53
2022-09-17T12:56:33.238Z,100185.63
2022-09-17T13:03:29.177Z,100146.72
2022-09-17T13:11:09.441Z,100172.41
2022-09-17T13:18:22.990Z,100170.88
2022-09-17T13:25:15.400Z,100167.06
2022-09-17T13:32:01.938Z,100172.91
2022-09-17T13:38:47.397Z,100168.72
2022-09-17T13:45:36.475Z,100167.50
2022-09-17T13:52:40.190Z,100167.03
2022-09-17T13:59:30.183Z,100172.06
2022-09-17T14:06:59.675Z,100192.72
2022-09-17T14:13:47.371Z,100188.13
2022-09-17T14:20:36.475Z,100207.16
2022-09-17T14:27:52.299Z,100195.31
2022-09-17T14:34:38.350Z,100206.69
2022-09-17T14:41:27.931Z,100217.81
2022-09-17T14:48:32.662Z,100170.78
2022-09-17T14:55:24.119Z,100203.09
2022-09-17T15:02:41.426Z,100205.56
2022-09-17T15:09:30.447Z,100210.25
2022-09-17T15:16:25.299Z,100220.59
2022-09-17T15:23:16.995Z,100212.78
2022-09-17T15:30:08.576Z,100219.44
2022-09-17T15:37:20.175Z,100166.44
2022-09-17T15:44:29.770Z,100238.63
2022-09-17T15:51:29.697Z,100244.09
2022-09-17T15:58:27.193Z,100239.91
2022-09-17T16:05:54.203Z,100250.09
2022-09-17T16:12:44.868Z,100256.78
2022-09-17T16:19:30.189Z,100210.81
2022-09-17T16:26:21.160Z,100256.59
2022-09-17T16:33:09.550Z,100244.00
2022-09-17T16:39:55.238Z,100259.84
2022-09-17T16:46:40.650Z,100262.84
2022-09-17T16:53:28.837Z,100206.28
2022-09-17T17:00:19.520Z,100279.03
2022-09-17T17:07:05.369Z,100297.06
2022-09-17T17:13:53.297Z,100297.78
2022-09-17T17:20:38.841Z,100304.94
2022-09-17T17:27:24.176Z,100311.66
2022-09-17T17:34:12.519Z,100306.78
2022-09-17T17:41:07.663Z,100239.34
2022-09-17T17:47:53.124Z,100333.31
2022-09-17T17:54:41.308Z,100339.56
2022-09-17T18:01:30.599Z,100318.53
2022-09-17T18:08:16.013Z,100378.41
2022-09-17T18:15:04.067Z,100371.38
2022-09-17T18:21:49.625Z,100377.47
2022-09-17T18:28:37.641Z,100374.91
2022-09-17T18:35:25.640Z,100377.38
2022-09-17T18:42:11.311Z,100369.28
2022-09-17T18:48:57.777Z,100375.59
2022-09-17T18:55:49.756Z,100372.59
2022-09-17T19:02:36.192Z,100398.06
2022-09-17T19:09:21.565Z,100414.78
2022-09-17T19:16:10.959Z,100429.06
2022-09-17T19:22:56.372Z,100413.00
2022-09-17T19:29:41.721Z,100456.91
2022-09-17T19:36:30.231Z,100407.34
2022-09-17T19:43:15.771Z,100458.44
2022-09-17T19:50:01.177Z,100459.59
2022-09-17T19:56:49.343Z,100449.88
2022-09-17T20:03:34.843Z,100461.31
2022-09-17T20:10:20.465Z,100433.34
2022-09-17T20:17:08.525Z,100458.78
2022-09-17T20:23:54.254Z,100464.19
2022-09-17T20:30:39.965Z,100464.88
2022-09-17T20:38:08.297Z,100459.06
2022-09-17T20:44:33.312Z,100469.16
2022-09-17T20:51:21.417Z,100462.81
2022-09-17T20:58:09.932Z,100464.47
2022-09-17T21:04:56.407Z,100472.16
2022-09-17T21:11:42.488Z,100482.09
2022-09-17T21:18:32.697Z,100478.09
2022-09-17T21:25:20.546Z,100482.75
2022-09-17T21:32:06.231Z,100484.22
2022-09-17T21:38:57.889Z,100383.53
2022-09-17T21:45:43.214Z,100474.25
2022-09-17T21:52:28.615Z,100475.28
2022-09-17T21:59:19.265Z,100472.38
2022-09-17T22:06:07.250Z,100476.38
2022-09-17T22:12:52.708Z,100481.88
2022-09-17T22:19:40.676Z,100449.22
2022-09-17T22:26:29.135Z,100486.84
2022-09-17T22:33:14.489Z,100485.16
2022-09-17T22:40:06.377Z,100487.28
2022-09-17T22:46:54.348Z,100480.94
2022-09-17T22:53:40.864Z,100483.97
2022-09-17T23:00:28.838Z,100481.84
2022-09-17T23:07:14.454Z,100486.34
2022-09-17T23:14:02.253Z,100482.78
2022-09-17T23:21:00.599Z,100393.22
2022-09-17T23:27:45.952Z,100482.66
2022-09-17T23:34:31.835Z,100481.50
2022-09-17T23:41:22.609Z,100473.03
2022-09-17T23:48:08.077Z,100476.78
2022-09-17T23:54:58.228Z,100477.25
